createdAt,value
2023-01-01T08:31:16.963Z,11.55
2023-01-01T08:32:18.382Z,12.18
2023-01-01T08:33:19.867Z,12.33
2023-01-01T08:34:21.227Z,12.87
2023-01-01T08:35:22.659Z,13.32
2023-01-01T08:36:24.557Z,13.84
2023-01-01T08:37:25.934Z,14.08
2023-01-01T08:38:27.410Z,14.27
2023-01-01T08:39:29.014Z,14.72
2023-01-01T08:40:30.490Z,15.35
2023-01-01T08:41:31.835Z,15.51
2023-01-01T08:42:33.254Z,15.68
2023-01-01T08:43:34.671Z,15.74
2023-01-01T08:44:36.179Z,15.89
2023-01-01T08:45:37.612Z,15.72
2023-01-01T08:46:39.139Z,15.13
2023-01-01T08:47:40.581Z,15.37
2023-01-01T08:48:42.416Z,14.70
2023-01-01T08:49:43.827Z,15.28
2023-01-01T08:50:45.213Z,15.41
2023-01-01T08:51:46.764Z,14.93
2023-01-01T08:52:48.177Z,14.78
2023-01-01T08:53:51.555Z,15.02
2023-01-01T08:54:53.212Z,15.28
2023-01-01T08:56:03.812Z,15.17
2023-01-01T08:57:05.707Z,15.35
2023-01-01T08:58:07.629Z,15.22
2023-01-01T08:59:09.117Z,15.07
2023-01-01T09:00:14.358Z,15.11
2023-01-01T09:01:16.521Z,16.02
2023-01-01T09:02:18.193Z,16.01
2023-01-01T09:03:20.852Z,16.26
2023-01-01T09:04:22.380Z,15.52
2023-01-01T09:05:23.903Z,15.09
2023-01-01T09:06:25.360Z,15.21
2023-01-01T09:07:26.781Z,14.82
2023-01-01T09:08:28.516Z,14.01
2023-01-01T09:09:31.817Z,13.83
2023-01-01T09:10:33.464Z,13.49
2023-01-01T09:11:34.978Z,13.59
2023-01-01T09:12:36.494Z,13.52
2023-01-01T09:13:37.879Z,13.49
2023-01-01T09:14:39.279Z,13.58
2023-01-01T09:15:42.769Z,13.47
2023-01-01T09:16:44.499Z,13.45
2023-01-01T09:17:46.027Z,13.39
2023-01-01T09:18:47.648Z,13.16
2023-01-01T09:19:49.188Z,13.26
2023-01-01T09:20:50.618Z,13.16
2023-01-01T09:21:52.373Z,13.31
2023-01-01T09:22:53.734Z,13.55
2023-01-01T09:23:55.064Z,13.82
2023-01-01T09:24:56.579Z,13.91
2023-01-01T09:26:05.641Z,13.74
2023-01-01T09:27:07.093Z,14.36
2023-01-01T09:28:12.077Z,14.34
2023-01-01T09:29:18.245Z,14.25
2023-01-01T09:30:20.305Z,14.62
2023-01-01T09:31:21.733Z,14.40
2023-01-01T09:32:24.141Z,14.63
2023-01-01T09:33:25.617Z,14.74
2023-01-01T09:34:28.000Z,15.04
2023-01-01T09:35:29.943Z,15.59
2023-01-01T09:36:33.516Z,16.22
2023-01-01T09:37:34.937Z,16.50
2023-01-01T09:38:36.558Z,16.54
2023-01-01T09:39:37.933Z,16.93
2023-01-01T09:41:00.251Z,16.30
2023-01-01T09:42:22.811Z,17.00
2023-01-01T09:43:24.461Z,17.93
2023-01-01T09:44:46.879Z,17.78
2023-01-01T09:46:01.539Z,17.68
2023-01-01T09:47:05.849Z,18.30
2023-01-01T09:48:13.383Z,18.54
2023-01-01T09:49:29.245Z,18.35
2023-01-01T09:50:45.811Z,18.44
2023-01-01T09:51:58.114Z,18.41
2023-01-01T09:53:04.657Z,18.74
2023-01-01T09:54:37.922Z,18.53
2023-01-01T09:56:02.353Z,18.53
2023-01-01T09:57:10.475Z,19.42
2023-01-01T09:58:15.259Z,19.20
2023-01-01T09:59:16.721Z,18.79
2023-01-01T10:00:20.112Z,18.21
2023-01-01T10:01:45.125Z,17.75
2023-01-01T10:03:06.837Z,17.37
2023-01-01T10:04:32.545Z,17.10
2023-01-01T10:05:45.349Z,17.25
2023-01-01T10:07:25.696Z,17.48
2023-01-01T10:08:41.027Z,17.47
2023-01-01T10:09:54.701Z,17.60
2023-01-01T10:11:15.027Z,17.89
2023-01-01T10:12:54.769Z,18.44
2023-01-01T10:13:59.140Z,18.14
2023-01-01T10:15:15.964Z,17.43
2023-01-01T10:16:25.475Z,18.54
2023-01-01T10:17:40.059Z,17.95
2023-01-01T10:18:42.845Z,17.43
2023-01-01T10:19:50.680Z,17.77
2023-01-01T10:21:07.880Z,18.23
2023-01-01T10:22:14.974Z,18.49
2023-01-01T10:23:19.759Z,18.51
2023-01-01T10:24:35.948Z,19.20
2023-01-01T10:25:40.658Z,17.85
2023-01-01T10:26:42.035Z,17.59
2023-01-01T10:27:59.929Z,17.59
2023-01-01T10:29:08.745Z,17.65
2023-01-01T10:30:17.467Z,17.90
2023-01-01T10:31:29.447Z,17.89
2023-01-01T10:32:33.478Z,17.43
2023-01-01T10:33:34.817Z,16.94
2023-01-01T10:34:36.166Z,16.88
2023-01-01T10:35:48.737Z,17.55
2023-01-01T10:36:54.050Z,17.39
2023-01-01T10:37:55.394Z,17.64
2023-01-01T10:38:56.755Z,17.61
2023-01-01T10:39:58.183Z,17.53
2023-01-01T10:41:05.795Z,17.70
2023-01-01T10:42:07.421Z,17.79
2023-01-01T10:43:11.924Z,18.30
2023-01-01T10:44:15.917Z,18.85
2023-01-01T10:45:49.036Z,19.05
2023-01-01T10:46:56.356Z,19.28
2023-01-01T10:48:27.628Z,18.08
2023-01-01T10:49:29.167Z,18.30
2023-01-01T10:50:45.878Z,18.53
2023-01-01T10:51:49.601Z,19.09
2023-01-01T10:52:56.730Z,18.55
2023-01-01T10:53:58.201Z,18.72
2023-01-01T10:55:00.224Z,18.73
2023-01-01T10:56:05.473Z,18.91
2023-01-01T10:57:29.395Z,19.24
2023-01-01T10:58:41.160Z,18.93
2023-01-01T10:59:49.868Z,18.74
2023-01-01T11:00:59.651Z,18.03
2023-01-01T11:02:31.674Z,18.52
2023-01-01T11:03:33.916Z,18.85
2023-01-01T11:04:35.376Z,18.97
2023-01-01T11:05:36.846Z,19.14
2023-01-01T11:06:43.202Z,19.03
2023-01-01T11:07:44.985Z,19.13
2023-01-01T11:08:49.898Z,20.11
2023-01-01T11:10:02.701Z,20.03
2023-01-01T11:11:05.641Z,19.36
2023-01-01T11:12:46.012Z,19.99
2023-01-01T11:13:40.354Z,19.86
2023-01-01T11:14:50.828Z,19.80
2023-01-01T11:15:52.667Z,19.62
2023-01-01T11:16:55.772Z,20.05
2023-01-01T11:18:12.403Z,20.28
2023-01-01T11:19:37.653Z,20.43
2023-01-01T11:20:40.258Z,20.47
2023-01-01T11:21:47.067Z,20.91
2023-01-01T11:22:51.491Z,21.13
2023-01-01T11:24:16.291Z,20.51
2023-01-01T11:25:26.768Z,19.63
2023-01-01T11:26:28.237Z,19.85
2023-01-01T11:27:29.627Z,20.01
2023-01-01T11:28:34.942Z,19.84
2023-01-01T11:29:36.373Z,19.83
2023-01-01T11:30:39.102Z,19.31
2023-01-01T11:31:40.596Z,19.81
2023-01-01T11:32:42.157Z,19.37
2023-01-01T11:33:45.864Z,19.36
2023-01-01T11:35:00.348Z,18.78
2023-01-01T11:36:02.406Z,18.71
2023-01-01T11:37:21.179Z,19.08
2023-01-01T11:38:29.465Z,19.30
2023-01-01T11:39:32.850Z,19.26
2023-01-01T11:40:45.466Z,19.57
2023-01-01T11:41:49.296Z,19.66
2023-01-01T11:42:58.234Z,20.25
2023-01-01T11:44:00.325Z,19.70
2023-01-01T11:45:06.857Z,20.04
2023-01-01T11:46:12.173Z,18.98
2023-01-01T11:47:57.911Z,18.86
2023-01-01T11:48:59.761Z,19.03
2023-01-01T11:50:16.231Z,18.65
2023-01-01T11:51:31.917Z,19.24
2023-01-01T11:52:42.327Z,19.14
2023-01-01T11:53:43.963Z,19.36
2023-01-01T11:54:46.521Z,19.89
2023-01-01T11:56:08.137Z,19.40
2023-01-01T11:57:16.193Z,19.56
2023-01-01T11:58:35.767Z,19.53
2023-01-01T11:59:46.796Z,19.27
2023-01-01T12:00:54.175Z,19.32
2023-01-01T12:01:59.888Z,19.42
2023-01-01T12:03:11.972Z,18.98
2023-01-01T12:04:20.358Z,19.38
2023-01-01T12:05:34.341Z,19.18
2023-01-01T12:06:56.488Z,19.84
2023-01-01T12:08:00.172Z,19.69
2023-01-01T12:09:18.250Z,19.92
2023-01-01T12:10:27.715Z,20.15
2023-01-01T12:11:41.567Z,19.69
2023-01-01T12:12:48.574Z,19.29
2023-01-01T12:14:12.841Z,19.49
2023-01-01T12:15:31.278Z,19.91
2023-01-01T12:16:46.690Z,19.46
2023-01-01T12:17:58.053Z,19.14
2023-01-01T12:19:15.605Z,18.93
2023-01-01T12:20:27.862Z,19.07
2023-01-01T12:21:31.027Z,18.93
2023-01-01T12:22:32.799Z,18.50
2023-01-01T12:23:34.760Z,18.89
2023-01-01T12:24:36.812Z,18.96
2023-01-01T12:25:45.363Z,19.32
2023-01-01T12:27:23.616Z,18.58
2023-01-01T12:28:39.913Z,19.16
2023-01-01T12:29:53.172Z,18.58
2023-01-01T12:31:24.781Z,18.73
2023-01-01T12:33:00.812Z,18.72
2023-01-01T12:34:36.788Z,18.67
2023-01-01T12:36:04.892Z,18.67
2023-01-01T12:37:09.257Z,18.93
2023-01-01T12:38:29.174Z,18.44
2023-01-01T12:39:30.523Z,18.41
2023-01-01T12:40:39.759Z,18.85
2023-01-01T12:41:41.044Z,19.14
2023-01-01T12:42:57.665Z,18.84
2023-01-01T12:44:16.655Z,18.51
2023-01-01T12:45:31.304Z,18.90
2023-01-01T12:47:08.343Z,18.89
2023-01-01T12:48:41.110Z,18.74
2023-01-01T12:50:21.521Z,18.95
2023-01-01T12:51:37.990Z,18.81
2023-01-01T12:52:55.806Z,18.32
2023-01-01T12:54:28.855Z,18.20
2023-01-01T12:55:48.825Z,18.14
2023-01-01T12:57:14.487Z,17.91
2023-01-01T12:58:27.079Z,17.95
2023-01-01T12:59:42.526Z,17.77
2023-01-01T13:00:54.414Z,18.10
2023-01-01T13:01:59.482Z,17.99
2023-01-01T13:03:12.103Z,17.84
2023-01-01T13:04:18.907Z,17.95
2023-01-01T13:05:28.632Z,18.04
2023-01-01T13:06:46.097Z,18.14
2023-01-01T13:07:51.410Z,18.31
2023-01-01T13:08:59.483Z,18.20
2023-01-01T13:10:23.794Z,18.15
2023-01-01T13:11:27.415Z,18.19
2023-01-01T13:12:29.983Z,18.21
2023-01-01T13:13:31.410Z,18.05
2023-01-01T13:14:46.916Z,18.14
2023-01-01T13:15:57.570Z,17.98
2023-01-01T13:16:58.997Z,17.91
2023-01-01T13:18:02.524Z,17.82
2023-01-01T13:19:04.919Z,17.62
2023-01-01T13:20:06.299Z,17.47
2023-01-01T13:21:22.509Z,17.25
2023-01-01T13:22:26.383Z,17.19
2023-01-01T13:23:38.349Z,17.07
2023-01-01T13:24:40.055Z,16.94
2023-01-01T13:25:41.590Z,17.11
2023-01-01T13:26:43.312Z,17.34
2023-01-01T13:27:57.238Z,17.20
2023-01-01T13:28:58.515Z,16.98
2023-01-01T13:29:59.905Z,17.16
2023-01-01T13:31:01.732Z,17.27
2023-01-01T13:32:05.291Z,17.30
2023-01-01T13:33:17.589Z,17.35
2023-01-01T13:34:38.448Z,17.22
2023-01-01T13:35:45.914Z,17.31
2023-01-01T13:36:47.406Z,17.20
2023-01-01T13:37:48.919Z,17.29
2023-01-01T13:38:51.939Z,17.31
2023-01-01T13:40:05.705Z,16.90
2023-01-01T13:41:27.591Z,16.81
2023-01-01T13:42:57.665Z,16.54
2023-01-01T13:44:03.226Z,16.38
2023-01-01T13:46:09.353Z,16.38
2023-01-01T13:47:10.018Z,16.56
2023-01-01T13:49:01.885Z,16.40
2023-01-01T13:50:20.013Z,16.76
2023-01-01T13:52:08.468Z,16.86
2023-01-01T13:53:22.669Z,16.60
2023-01-01T13:54:44.151Z,16.76
2023-01-01T13:56:05.450Z,16.81
2023-01-01T13:57:44.387Z,16.78
2023-01-01T13:59:07.893Z,16.69
2023-01-01T14:00:23.099Z,16.61
2023-01-01T14:01:50.771Z,16.48
2023-01-01T14:03:08.692Z,16.31
2023-01-01T14:04:43.225Z,16.55
2023-01-01T14:05:46.456Z,16.53
2023-01-01T14:06:51.685Z,16.35
2023-01-01T14:07:55.208Z,16.27
2023-01-01T14:09:06.778Z,16.56
2023-01-01T14:10:31.489Z,16.31
2023-01-01T14:11:33.045Z,16.11
2023-01-01T14:12:38.349Z,16.04
2023-01-01T14:13:41.307Z,16.13
2023-01-01T14:14:42.718Z,16.27
2023-01-01T14:15:52.440Z,16.27
2023-01-01T14:16:57.336Z,16.29
2023-01-01T14:18:01.459Z,16.21
2023-01-01T14:19:03.476Z,16.21
2023-01-01T14:20:07.523Z,16.06
2023-01-01T14:21:12.311Z,16.29
2023-01-01T14:22:16.401Z,16.20
2023-01-01T14:23:27.211Z,16.26
2023-01-01T14:24:28.674Z,16.21
2023-01-01T14:25:30.252Z,16.35
2023-01-01T14:26:34.021Z,16.19
2023-01-01T14:27:35.552Z,16.02
2023-01-01T14:28:38.560Z,15.90
2023-01-01T14:29:41.059Z,15.91
2023-01-01T14:30:44.448Z,15.86
2023-01-01T14:31:46.733Z,15.93
2023-01-01T14:32:59.426Z,15.73
2023-01-01T14:34:02.327Z,15.74
2023-01-01T14:35:04.021Z,15.78
2023-01-01T14:36:15.110Z,15.75
2023-01-01T14:37:24.861Z,15.80
2023-01-01T14:38:29.300Z,15.65
2023-01-01T14:39:35.604Z,15.63
2023-01-01T14:40:38.592Z,15.62
2023-01-01T14:41:41.899Z,15.66
2023-01-01T14:42:45.784Z,15.78
2023-01-01T14:43:50.013Z,16.02
2023-01-01T14:44:53.540Z,15.89
2023-01-01T14:45:55.651Z,15.73
2023-01-01T14:46:57.499Z,15.75
2023-01-01T14:47:59.271Z,15.84
2023-01-01T14:49:08.596Z,15.93
2023-01-01T14:50:10.320Z,16.07
2023-01-01T14:51:31.801Z,15.76
2023-01-01T14:52:35.506Z,15.94
2023-01-01T14:53:36.991Z,15.99
2023-01-01T14:54:43.536Z,16.11
2023-01-01T14:55:47.206Z,16.22
2023-01-01T14:56:51.087Z,16.12
2023-01-01T14:57:59.084Z,16.17
2023-01-01T14:59:15.469Z,16.22
2023-01-01T15:00:26.369Z,16.21
2023-01-01T15:01:27.946Z,16.14
2023-01-01T15:02:37.976Z,16.02
2023-01-01T15:03:39.571Z,15.92
2023-01-01T15:04:41.317Z,15.87
2023-01-01T15:05:44.486Z,15.68
2023-01-01T15:06:52.529Z,15.77
2023-01-01T15:08:02.559Z,15.68
2023-01-01T15:09:04.277Z,15.55
2023-01-01T15:10:06.223Z,15.49
2023-01-01T15:11:08.009Z,15.43
2023-01-01T15:12:13.826Z,15.39
2023-01-01T15:13:23.447Z,15.37
2023-01-01T15:14:35.341Z,15.31
2023-01-01T15:15:43.066Z,15.16
2023-01-01T15:16:44.526Z,15.03
2023-01-01T15:17:47.156Z,15.06
2023-01-01T15:18:53.370Z,14.94
2023-01-01T15:20:06.072Z,14.68
2023-01-01T15:21:18.043Z,14.71
2023-01-01T15:22:35.065Z,14.71
2023-01-01T15:23:37.008Z,14.75
2023-01-01T15:24:39.490Z,14.74
2023-01-01T15:25:42.703Z,14.57
2023-01-01T15:26:51.039Z,14.51
2023-01-01T15:27:55.523Z,14.48
2023-01-01T15:29:01.186Z,14.48
2023-01-01T15:30:13.211Z,14.44
2023-01-01T15:31:15.451Z,14.46
2023-01-01T15:32:24.856Z,14.41
